Time;durP1;ratioP1;P1;durP2;ratioP2;P2;SDS_P1;SDS_P2;PMS_P1;PMS_P2;Temp;Humidity;BMP_temperature;BMP_pressure;BME280_temperature;BME280_humidity;BME280_pressure;Samples;Min_cycle;Max_cycle;Signal;HPM_P1;HPM_P2
2023/05/21 00:00:10;;;;;;;15.80;14.27;;;;;;;16.28;66.76;95778.69;5028922;28;20640;-71
2023/05/21 00:02:42;;;;;;;17.17;15.37;;;;;;;16.06;67.22;95782.09;5027717;28;20206;-70
2023/05/21 00:05:12;;;;;;;16.27;14.63;;;;;;;16.11;67.20;95772.03;5027782;28;20456;-69
2023/05/21 00:07:38;;;;;;;16.00;14.40;;;;;;;16.16;67.31;95772.53;5028235;28;20841;-69
2023/05/21 00:10:04;;;;;;;18.17;15.73;;;;;;;16.26;66.89;95767.38;5028084;28;20472;-70
2023/05/21 00:12:31;;;;;;;16.27;14.60;;;;;;;16.01;68.09;95774.50;5028298;28;20445;-70
2023/05/21 00:14:56;;;;;;;16.83;14.37;;;;;;;16.08;67.84;95772.25;5027594;28;20438;-69
2023/05/21 00:17:22;;;;;;;17.10;15.47;;;;;;;15.93;68.25;95771.59;5027923;28;20418;-70
2023/05/21 00:19:51;;;;;;;18.43;16.47;;;;;;;16.09;67.98;95771.31;5027809;28;20175;-70
2023/05/21 00:22:16;;;;;;;17.73;16.03;;;;;;;16.02;67.93;95765.63;5027652;28;20573;-69
2023/05/21 00:24:44;;;;;;;17.37;15.63;;;;;;;15.97;68.70;95775.72;5027398;28;20438;-69
2023/05/21 00:27:10;;;;;;;16.60;14.90;;;;;;;16.02;68.13;95760.34;5027418;28;20191;-69
2023/05/21 00:29:35;;;;;;;17.70;15.90;;;;;;;15.94;69.09;95761.84;5027623;28;20427;-70
2023/05/21 00:32:01;;;;;;;17.37;15.50;;;;;;;16.01;68.81;95755.97;5027453;28;20262;-70
2023/05/21 00:34:26;;;;;;;24.30;17.07;;;;;;;16.05;68.25;95752.16;5027218;28;20222;-70
2023/05/21 00:36:54;;;;;;;17.47;15.80;;;;;;;15.86;69.22;95759.81;5027438;28;20178;-70
2023/05/21 00:39:19;;;;;;;16.60;15.00;;;;;;;15.92;68.79;95756.69;5011231;28;20184;-70
2023/05/21 00:41:47;;;;;;;18.80;15.83;;;;;;;15.92;69.12;95746.13;5007525;28;20920;-70
2023/05/21 00:44:13;;;;;;;18.50;14.50;;;;;;;15.85;69.24;95752.81;5006623;28;20200;-69
2023/05/21 00:46:40;;;;;;;16.43;14.83;;;;;;;15.92;69.23;95743.47;5023707;28;20445;-70
2023/05/21 00:49:06;;;;;;;20.50;16.50;;;;;;;15.86;69.22;95742.13;5022308;28;20548;-69
2023/05/21 00:51:31;;;;;;;17.03;15.27;;;;;;;15.78;69.61;95748.94;5010062;28;20481;-70
2023/05/21 00:53:57;;;;;;;17.43;15.60;;;;;;;15.70;69.85;95744.22;5011315;28;20847;-69
2023/05/21 00:56:25;;;;;;;18.97;16.13;;;;;;;15.74;70.12;95750.16;5007283;28;20227;-68
2023/05/21 00:58:51;;;;;;;17.57;15.77;;;;;;;15.70;70.19;95746.00;5007407;28;20598;-70
2023/05/21 01:01:17;;;;;;;18.30;16.50;;;;;;;15.71;70.27;95750.34;5007345;28;20641;-69
2023/05/21 01:03:43;;;;;;;17.57;15.70;;;;;;;15.60;70.67;95744.03;5006970;28;20818;-69
2023/05/21 01:06:09;;;;;;;17.53;15.73;;;;;;;15.65;70.38;95748.97;5022302;28;20445;-68
2023/05/21 01:08:36;;;;;;;18.20;16.30;;;;;;;15.53;70.83;95747.25;5026783;28;20284;-69
2023/05/21 01:11:03;;;;;;;18.40;15.83;;;;;;;15.64;70.28;95753.44;5026661;28;20499;-70
2023/05/21 01:13:30;;;;;;;18.23;16.30;;;;;;;15.67;69.97;95747.06;5026375;28;20439;-69
2023/05/21 01:15:57;;;;;;;19.23;17.27;;;;;;;15.79;69.56;95748.00;5026620;28;20457;-69
2023/05/21 01:18:23;;;;;;;18.33;16.43;;;;;;;15.65;70.22;95746.34;5026517;28;20521;-69
2023/05/21 01:20:49;;;;;;;16.13;14.53;;;;;;;15.69;70.09;95745.16;5026389;28;20882;-69
2023/05/21 01:23:18;;;;;;;17.33;15.13;;;;;;;15.54;70.42;95739.19;5026410;28;20462;-68
2023/05/21 01:25:44;;;;;;;19.40;16.70;;;;;;;15.50;70.69;95737.75;5025956;28;20225;-69
2023/05/21 01:28:10;;;;;;;16.97;15.17;;;;;;;15.55;70.86;95737.41;5026414;28;20564;-70
2023/05/21 01:30:38;;;;;;;17.07;15.40;;;;;;;15.56;70.59;95739.09;5026498;28;20457;-70
2023/05/21 01:33:11;;;;;;;18.00;16.13;;;;;;;15.47;71.11;95740.59;5026196;28;20895;-69
2023/05/21 01:36:06;;;;;;;17.47;15.73;;;;;;;15.57;70.76;95732.84;5025941;28;20426;-69
2023/05/21 01:38:51;;;;;;;17.90;15.30;;;;;;;15.60;70.46;95736.09;5026249;28;20931;-70
2023/05/21 01:41:18;;;;;;;16.97;15.17;;;;;;;15.55;70.63;95737.41;5025993;28;20457;-70
2023/05/21 01:43:46;;;;;;;20.50;16.33;;;;;;;15.43;71.20;95734.72;5026159;28;21138;-69
2023/05/21 01:46:16;;;;;;;17.57;15.80;;;;;;;15.50;70.72;95740.41;5025880;28;20481;-69
2023/05/21 01:48:43;;;;;;;21.83;15.90;;;;;;;15.44;71.07;95746.97;5021310;28;20521;-69
2023/05/21 01:51:08;;;;;;;19.03;15.83;;;;;;;15.58;70.33;95747.75;5022085;28;20545;-69
2023/05/21 01:53:34;;;;;;;16.80;15.00;;;;;;;15.38;71.37;95752.72;5022131;28;20477;-69
2023/05/21 01:56:01;;;;;;;17.80;15.90;;;;;;;15.42;71.18;95746.22;5008055;28;20263;-70
2023/05/21 01:58:27;;;;;;;18.03;16.23;;;;;;;15.38;71.30;95742.16;5019143;28;20220;-70
2023/05/21 02:00:52;;;;;;;16.37;14.73;;;;;;;15.32;71.41;95742.59;5025903;28;20409;-70
2023/05/21 02:03:20;;;;;;;17.67;15.83;;;;;;;15.26;71.81;95740.41;5025511;28;20240;-70
2023/05/21 02:05:46;;;;;;;18.50;16.60;;;;;;;15.44;71.11;95746.13;5025940;28;20199;-69
2023/05/21 02:08:13;;;;;;;16.90;15.20;;;;;;;15.30;71.43;95739.22;5025520;28;20928;-69
2023/05/21 02:10:39;;;;;;;18.17;16.30;;;;;;;15.27;71.78;95736.78;5025688;28;20176;-69
2023/05/21 02:13:05;;;;;;;18.00;16.27;;;;;;;15.32;71.61;95736.47;5025743;28;20406;-69
2023/05/21 02:15:33;;;;;;;18.97;17.03;;;;;;;15.18;72.23;95740.94;5025259;28;20283;-69
2023/05/21 02:17:58;;;;;;;17.40;15.60;;;;;;;15.13;72.32;95737.78;5025833;28;20260;-69
2023/05/21 02:20:24;;;;;;;20.70;17.77;;;;;;;15.07;72.33;95732.09;5025549;28;20904;-69
2023/05/21 02:22:49;;;;;;;18.27;16.37;;;;;;;15.11;72.09;95736.22;5025785;28;20199;-71
2023/05/21 02:25:17;;;;;;;19.43;17.47;;;;;;;14.92;72.90;95734.06;5024612;28;20207;-70
2023/05/21 02:27:43;;;;;;;18.33;16.30;;;;;;;15.00;72.70;95727.28;5024329;28;20184;-69
2023/05/21 02:30:13;;;;;;;19.00;17.10;;;;;;;15.16;72.24;95726.16;5023661;28;20472;-68
2023/05/21 02:32:43;;;;;;;18.73;16.83;;;;;;;15.16;71.84;95727.00;5024472;28;20452;-70
2023/05/21 02:35:11;;;;;;;21.50;16.17;;;;;;;14.95;72.47;95731.19;5024235;28;20926;-69
2023/05/21 02:37:39;;;;;;;18.07;16.27;;;;;;;14.98;72.76;95729.19;5023772;28;20441;-69
2023/05/21 02:40:06;;;;;;;17.77;16.00;;;;;;;15.03;72.54;95716.50;5020732;28;20474;-68
2023/05/21 02:42:32;;;;;;;19.20;15.57;;;;;;;15.16;71.96;95712.94;5023785;28;20565;-70
2023/05/21 02:44:57;;;;;;;18.63;15.97;;;;;;;15.23;71.67;95714.19;5023778;28;20540;-68
2023/05/21 02:47:23;;;;;;;18.77;16.87;;;;;;;15.24;71.77;95711.44;5023608;28;20276;-70
2023/05/21 02:49:52;;;;;;;19.07;17.17;;;;;;;15.29;71.13;95705.81;5023986;28;20180;-69
2023/05/21 02:52:20;;;;;;;19.73;16.53;;;;;;;15.18;71.43;95701.31;5020911;28;20249;-68
2023/05/21 02:54:46;;;;;;;25.23;16.23;;;;;;;15.15;71.58;95703.34;5022668;28;20462;-70
2023/05/21 02:57:12;;;;;;;18.70;16.60;;;;;;;15.10;71.94;95710.78;5024642;28;21257;-69
2023/05/21 02:59:37;;;;;;;17.90;16.03;;;;;;;15.08;72.12;95705.59;5023309;28;20438;-69
2023/05/21 03:02:03;;;;;;;25.03;17.03;;;;;;;15.03;72.32;95703.28;5024624;28;20190;-69
2023/05/21 03:04:28;;;;;;;24.57;16.70;;;;;;;15.11;72.08;95713.28;5019570;28;20676;-68
2023/05/21 03:06:55;;;;;;;19.63;17.53;;;;;;;15.07;71.86;95709.19;5026316;28;20188;-69
2023/05/21 03:09:21;;;;;;;22.83;17.00;;;;;;;14.98;72.32;95713.34;5026854;28;20183;-68
2023/05/21 03:11:47;;;;;;;19.97;15.77;;;;;;;14.89;72.78;95707.88;5027871;28;20432;-69
2023/05/21 03:14:13;;;;;;;20.30;17.10;;;;;;;14.76;73.22;95718.47;5027095;28;20253;-69
2023/05/21 03:16:40;;;;;;;19.30;17.40;;;;;;;14.88;72.75;95711.47;5027858;28;21205;-69
2023/05/21 03:19:06;;;;;;;18.37;16.47;;;;;;;14.75;73.07;95706.22;5027206;28;20548;-69
2023/05/21 03:21:32;;;;;;;18.30;16.50;;;;;;;14.66;73.67;95706.88;5026300;28;20525;-67
2023/05/21 03:23:58;;;;;;;17.57;15.63;;;;;;;14.64;73.49;95711.41;5025976;28;20992;-69
2023/05/21 03:26:26;;;;;;;19.73;17.73;;;;;;;14.67;73.49;95708.56;5027390;28;20265;-70
2023/05/21 03:28:54;;;;;;;21.00;17.97;;;;;;;14.54;73.84;95713.88;5027055;28;20265;-70
2023/05/21 03:31:20;;;;;;;19.07;16.10;;;;;;;14.51;73.95;95704.34;5027807;28;20488;-69
2023/05/21 03:33:46;;;;;;;19.00;17.07;;;;;;;14.65;73.63;95702.56;5026915;28;20430;-69
2023/05/21 03:36:11;;;;;;;19.37;17.47;;;;;;;14.69;73.29;95701.38;5026621;28;20216;-69
2023/05/21 03:38:37;;;;;;;26.67;17.80;;;;;;;14.58;73.52;95699.50;5027353;28;20186;-69
2023/05/21 03:41:02;;;;;;;19.10;16.63;;;;;;;14.52;73.98;95706.00;5012622;28;20633;-70
2023/05/21 03:43:28;;;;;;;17.00;15.43;;;;;;;14.65;73.30;95700.75;5028113;28;20211;-68
2023/05/21 03:45:54;;;;;;;19.00;17.10;;;;;;;14.55;73.75;95711.13;5012560;28;20298;-70
2023/05/21 03:48:19;;;;;;;18.47;16.60;;;;;;;14.51;73.76;95708.78;5008713;28;20411;-70
2023/05/21 03:50:45;;;;;;;17.80;15.63;;;;;;;14.48;73.87;95709.84;5008757;28;20526;-69
2023/05/21 03:53:11;;;;;;;18.00;16.10;;;;;;;14.38;74.16;95708.78;5024725;28;20245;-69
2023/05/21 03:55:37;;;;;;;19.53;17.53;;;;;;;14.30;74.50;95704.06;5028083;28;20215;-69
2023/05/21 03:58:02;;;;;;;17.80;15.90;;;;;;;14.39;74.20;95713.13;5028364;28;20175;-69
2023/05/21 04:00:28;;;;;;;19.63;17.73;;;;;;;14.22;74.57;95710.81;5028129;28;20190;-70
2023/05/21 04:02:53;;;;;;;19.00;17.00;;;;;;;14.13;75.03;95714.94;5028092;28;20582;-68
2023/05/21 04:05:19;;;;;;;19.80;17.20;;;;;;;14.19;74.67;95717.97;5027649;28;20199;-69
2023/05/21 04:07:45;;;;;;;30.17;16.70;;;;;;;14.25;74.96;95711.44;5027989;28;20270;-69
2023/05/21 04:10:11;;;;;;;18.83;16.87;;;;;;;14.38;73.91;95711.44;5028148;28;20281;-69
2023/05/21 04:12:36;;;;;;;25.83;16.73;;;;;;;14.14;74.84;95708.72;5028227;28;20931;-69
2023/05/21 04:15:02;;;;;;;23.00;17.23;;;;;;;14.33;74.24;95724.94;5027706;28;20523;-69
2023/05/21 04:17:28;;;;;;;18.93;16.80;;;;;;;14.25;74.66;95726.44;5028347;28;20176;-68
2023/05/21 04:19:53;;;;;;;17.57;15.67;;;;;;;14.33;74.43;95732.03;5027604;28;20246;-68
2023/05/21 04:22:20;;;;;;;17.33;15.63;;;;;;;14.38;74.32;95727.25;5027674;28;20280;-70
2023/05/21 04:24:45;;;;;;;16.70;15.00;;;;;;;14.27;74.22;95738.59;5027492;28;20218;-69
2023/05/21 04:27:12;;;;;;;18.20;16.40;;;;;;;14.19;75.14;95739.09;5027990;28;20406;-70
2023/05/21 04:29:41;;;;;;;19.03;17.13;;;;;;;14.14;75.06;95738.56;5027803;28;20198;-69
2023/05/21 04:32:07;;;;;;;19.90;17.77;;;;;;;14.28;74.47;95750.81;5027391;28;20414;-70
2023/05/21 04:34:33;;;;;;;18.13;16.30;;;;;;;14.24;74.74;95759.06;5012079;28;20439;-70
2023/05/21 04:36:59;;;;;;;21.97;16.90;;;;;;;14.30;74.33;95756.00;5007925;28;20430;-69
2023/05/21 04:39:25;;;;;;;17.80;16.10;;;;;;;14.18;74.55;95750.59;5017016;28;20184;-69
2023/05/21 04:41:53;;;;;;;18.03;16.27;;;;;;;14.21;75.03;95756.63;5023205;28;20438;-69
2023/05/21 04:44:19;;;;;;;21.67;17.10;;;;;;;14.29;74.44;95752.53;5022695;28;20515;-69
2023/05/21 04:46:44;;;;;;;18.73;16.73;;;;;;;14.30;74.19;95753.34;5015949;28;20446;-69
2023/05/21 04:49:10;;;;;;;16.87;15.30;;;;;;;14.43;74.09;95762.09;5025059;28;20182;-68
2023/05/21 04:51:36;;;;;;;20.60;17.07;;;;;;;14.57;73.36;95751.47;5020628;28;20195;-69
2023/05/21 04:54:02;;;;;;;19.30;16.47;;;;;;;14.67;73.25;95758.72;5026978;28;20175;-69
2023/05/21 04:56:28;;;;;;;29.23;17.23;;;;;;;14.81;72.54;95761.25;5027135;28;20529;-69
2023/05/21 04:58:53;;;;;;;17.47;15.77;;;;;;;14.70;72.50;95763.81;5027261;28;20497;-70
2023/05/21 05:01:24;;;;;;;22.23;16.37;;;;;;;14.60;72.98;95759.19;5027200;28;20168;-69
2023/05/21 05:03:50;;;;;;;26.37;16.57;;;;;;;14.86;72.04;95761.78;5026500;28;20206;-69
2023/05/21 05:06:15;;;;;;;17.50;15.00;;;;;;;14.95;71.68;95762.91;5026941;28;20548;-69
2023/05/21 05:08:41;;;;;;;16.53;14.90;;;;;;;14.93;71.56;95762.16;5026958;28;20171;-70
2023/05/21 05:11:06;;;;;;;27.73;16.00;;;;;;;15.07;71.24;95759.41;5026886;28;20672;-68
2023/05/21 05:13:33;;;;;;;19.20;16.23;;;;;;;14.86;72.09;95767.06;5026656;28;20233;-68
2023/05/21 05:15:59;;;;;;;17.00;15.30;;;;;;;15.00;71.60;95769.56;5027008;28;20605;-70
2023/05/21 05:18:24;;;;;;;19.97;15.73;;;;;;;14.98;71.25;95766.19;5027005;28;20456;-69
2023/05/21 05:20:50;;;;;;;16.90;15.10;;;;;;;15.19;70.65;95766.44;5026953;28;20450;-69
2023/05/21 05:23:15;;;;;;;21.93;16.20;;;;;;;15.30;70.47;95775.38;5026776;28;21032;-68
2023/05/21 05:25:41;;;;;;;15.90;14.40;;;;;;;15.23;70.36;95772.31;5026561;28;20202;-69
2023/05/21 05:28:06;;;;;;;20.30;15.20;;;;;;;15.09;70.60;95777.78;5026756;28;20628;-69
2023/05/21 05:30:32;;;;;;;18.40;15.57;;;;;;;15.33;70.33;95764.56;5026649;28;20589;-70
2023/05/21 05:32:57;;;;;;;15.93;14.20;;;;;;;15.23;70.74;95769.69;5026981;28;20824;-69
2023/05/21 05:35:23;;;;;;;16.27;14.60;;;;;;;15.47;69.46;95769.69;5026302;28;20195;-69
2023/05/21 05:37:48;;;;;;;15.37;13.97;;;;;;;15.54;69.71;95772.72;5026650;28;20187;-69
2023/05/21 05:40:13;;;;;;;16.87;15.23;;;;;;;15.59;69.24;95770.59;5017116;28;20176;-69
2023/05/21 05:42:39;;;;;;;16.40;14.70;;;;;;;15.61;68.61;95766.91;5007115;28;20194;-69
2023/05/21 05:45:05;;;;;;;16.50;14.93;;;;;;;15.46;69.23;95768.84;5006434;28;20192;-69
2023/05/21 05:47:30;;;;;;;16.60;14.83;;;;;;;15.60;68.33;95761.72;5009337;28;20661;-69
2023/05/21 05:49:55;;;;;;;19.00;15.10;;;;;;;15.71;68.52;95766.22;5025024;28;20536;-70
2023/05/21 05:52:22;;;;;;;15.47;13.90;;;;;;;15.74;68.10;95764.22;5012109;28;20208;-68
2023/05/21 05:54:48;;;;;;;18.23;14.33;;;;;;;15.75;67.72;95762.41;5016717;28;20448;-70
2023/05/21 05:57:13;;;;;;;16.07;14.00;;;;;;;15.88;67.53;95764.00;5012825;28;20176;-70
2023/05/21 05:59:38;;;;;;;15.00;13.50;;;;;;;15.90;67.18;95763.03;5021980;28;20172;-70
2023/05/21 06:02:07;;;;;;;18.67;14.10;;;;;;;15.71;67.91;95764.44;5026163;28;20175;-68
2023/05/21 06:04:32;;;;;;;16.07;14.40;;;;;;;15.93;67.30;95768.13;5025678;28;20266;-70
2023/05/21 06:06:58;;;;;;;15.13;13.50;;;;;;;15.92;66.73;95762.00;5026054;28;20426;-69
2023/05/21 06:09:24;;;;;;;16.20;14.63;;;;;;;15.81;67.41;95767.25;5012816;28;20232;-69
2023/05/21 06:11:50;;;;;;;15.40;13.80;;;;;;;15.82;66.96;95766.28;5021444;28;20895;-70
2023/05/21 06:14:15;;;;;;;16.80;14.30;;;;;;;15.73;67.33;95766.97;5022732;28;20184;-69
2023/05/21 06:16:41;;;;;;;17.17;14.50;;;;;;;15.86;66.82;95768.56;5019268;28;20179;-70
2023/05/21 06:19:06;;;;;;;15.10;13.50;;;;;;;15.99;66.65;95765.00;5025124;28;20182;-70
2023/05/21 06:21:32;;;;;;;17.67;15.67;;;;;;;16.01;66.74;95766.56;5018784;28;20175;-68
2023/05/21 06:23:57;;;;;;;20.40;14.83;;;;;;;16.02;66.35;95767.44;5005963;28;20204;-69
2023/05/21 06:26:23;;;;;;;14.87;13.17;;;;;;;15.94;66.63;95775.09;5015436;28;20741;-70
2023/05/21 06:28:49;;;;;;;16.77;14.97;;;;;;;15.72;67.02;95775.88;5025473;28;20184;-69
2023/05/21 06:31:15;;;;;;;15.40;13.80;;;;;;;15.63;67.61;95777.34;5025943;28;20246;-69
2023/05/21 06:33:40;;;;;;;16.07;13.97;;;;;;;15.87;66.76;95782.63;5025542;28;20514;-70
2023/05/21 06:36:06;;;;;;;19.03;14.87;;;;;;;15.96;66.21;95778.47;5022639;28;20484;-68
2023/05/21 06:38:31;;;;;;;17.20;15.50;;;;;;;16.08;65.96;95770.44;5020054;28;20213;-69
2023/05/21 06:40:57;;;;;;;15.97;14.37;;;;;;;16.02;65.64;95778.03;5022042;28;20179;-68
2023/05/21 06:43:23;;;;;;;15.20;13.60;;;;;;;16.24;65.69;95774.56;5029027;28;20974;-68
2023/05/21 06:45:48;;;;;;;16.00;14.30;;;;;;;16.29;65.09;95765.31;5025918;28;20199;-71
2023/05/21 06:48:15;;;;;;;17.67;12.67;;;;;;;16.46;64.65;95771.09;5028781;28;20195;-70
2023/05/21 06:50:41;;;;;;;16.27;13.10;;;;;;;16.47;64.50;95772.81;5029125;28;20180;-69
2023/05/21 06:53:07;;;;;;;16.40;14.10;;;;;;;16.47;64.28;95767.50;5028490;28;20484;-68
2023/05/21 06:55:32;;;;;;;15.50;14.00;;;;;;;16.17;64.91;95762.78;5026457;28;20226;-69
2023/05/21 06:57:58;;;;;;;15.20;13.67;;;;;;;16.03;65.34;95774.41;5027919;28;20194;-70
2023/05/21 07:00:23;;;;;;;16.20;14.50;;;;;;;16.32;65.42;95771.31;5028945;28;20179;-70
2023/05/21 07:02:49;;;;;;;15.03;13.53;;;;;;;16.40;64.47;95774.25;5028794;28;20207;-68
2023/05/21 07:05:14;;;;;;;15.27;13.07;;;;;;;16.46;63.90;95771.09;5028493;28;20205;-70
2023/05/21 07:07:40;;;;;;;15.37;13.80;;;;;;;16.62;63.60;95776.06;5028155;28;20258;-68
2023/05/21 07:10:07;;;;;;;16.63;13.77;;;;;;;16.70;63.07;95782.47;5022515;28;20193;-69
2023/05/21 07:12:32;;;;;;;13.73;12.40;;;;;;;16.86;62.67;95775.97;5017917;28;20510;-69
2023/05/21 07:14:58;;;;;;;15.73;14.03;;;;;;;16.42;63.75;95775.81;5016272;28;20458;-67
2023/05/21 07:17:23;;;;;;;14.73;13.03;;;;;;;16.68;63.01;95787.03;5024891;28;20257;-71
2023/05/21 07:19:48;;;;;;;15.33;12.70;;;;;;;16.88;62.74;95780.19;5025458;28;20255;-69
2023/05/21 07:22:14;;;;;;;15.13;13.23;;;;;;;16.64;62.33;95776.78;5008897;28;20187;-70
2023/05/21 07:24:39;;;;;;;15.00;13.23;;;;;;;16.43;62.44;95779.31;5008862;28;20200;-70
2023/05/21 07:27:05;;;;;;;15.77;14.13;;;;;;;16.59;62.84;95785.09;5012799;28;20172;-68
2023/05/21 07:29:32;;;;;;;15.53;14.03;;;;;;;16.80;62.35;95781.78;5024561;28;20176;-70
2023/05/21 07:31:58;;;;;;;13.77;12.33;;;;;;;16.90;61.54;95783.56;5019867;28;20434;-70
2023/05/21 07:34:24;;;;;;;14.73;12.67;;;;;;;16.94;61.42;95789.47;5026578;28;20422;-70
2023/05/21 07:36:50;;;;;;;15.47;13.83;;;;;;;16.89;61.38;95778.38;5028429;28;20299;-70
2023/05/21 07:39:15;;;;;;;17.50;14.50;;;;;;;17.25;60.79;95771.97;5027957;28;20609;-68
2023/05/21 07:41:41;;;;;;;15.83;14.13;;;;;;;17.49;59.55;95777.06;5027050;28;20206;-70
2023/05/21 07:44:06;;;;;;;15.40;13.90;;;;;;;17.50;59.12;95768.16;5026053;28;20230;-70
2023/05/21 07:46:32;;;;;;;13.43;12.07;;;;;;;17.59;59.11;95776.34;5020574;28;20207;-69
2023/05/21 07:48:57;;;;;;;14.40;12.90;;;;;;;17.55;59.42;95776.59;5019967;28;20183;-70
2023/05/21 07:51:23;;;;;;;14.80;13.30;;;;;;;17.48;59.29;95775.41;5027934;28;20179;-70
2023/05/21 07:53:48;;;;;;;13.70;12.37;;;;;;;17.65;58.67;95775.84;5029060;28;20282;-71
2023/05/21 07:56:14;;;;;;;14.87;13.37;;;;;;;17.48;59.23;95783.38;5019523;28;20223;-70
2023/05/21 07:58:39;;;;;;;15.77;13.23;;;;;;;17.68;58.58;95780.88;5020499;28;20209;-70
2023/05/21 08:01:05;;;;;;;14.93;13.30;;;;;;;17.63;59.15;95775.97;5026640;28;20188;-70
2023/05/21 08:03:30;;;;;;;14.57;13.17;;;;;;;18.02;57.84;95786.06;5017045;28;20257;-71
2023/05/21 08:05:55;;;;;;;16.67;12.57;;;;;;;18.13;57.41;95788.69;5024757;28;20336;-70
2023/05/21 08:08:22;;;;;;;14.00;12.60;;;;;;;18.30;57.24;95789.91;5020866;28;20210;-70
2023/05/21 08:10:47;;;;;;;16.10;14.50;;;;;;;18.06;57.38;95787.50;5020864;28;20259;-71
2023/05/21 08:13:14;;;;;;;15.20;13.70;;;;;;;18.39;56.35;95784.66;5019403;28;20505;-71
2023/05/21 08:15:40;;;;;;;14.90;12.20;;;;;;;18.17;57.24;95788.31;5028621;28;20211;-70
2023/05/21 08:18:05;;;;;;;14.50;13.10;;;;;;;18.08;57.15;95791.72;5033748;28;20517;-70
2023/05/21 08:20:34;;;;;;;15.73;13.70;;;;;;;17.67;57.87;95788.00;5026173;28;20191;-71
2023/05/21 08:22:59;;;;;;;15.70;13.50;;;;;;;18.13;57.70;95791.34;5020375;28;20208;-70
2023/05/21 08:25:26;;;;;;;15.03;13.50;;;;;;;18.18;56.88;95786.47;5021277;28;20745;-70
2023/05/21 08:27:51;;;;;;;15.23;13.73;;;;;;;18.29;56.50;95778.44;5028470;28;20171;-70
2023/05/21 08:30:19;;;;;;;13.87;12.57;;;;;;;18.39;55.74;95782.00;5017619;28;20460;-70
2023/05/21 08:32:47;;;;;;;16.20;14.60;;;;;;;18.13;56.33;95776.25;5026137;28;20179;-71
2023/05/21 08:35:13;;;;;;;17.27;14.00;;;;;;;18.38;54.82;95782.16;5026588;28;20560;-70
2023/05/21 08:37:38;;;;;;;15.83;14.23;;;;;;;18.57;54.47;95786.75;5024435;28;20989;-71
2023/05/21 08:40:05;;;;;;;14.70;12.70;;;;;;;18.57;54.61;95779.59;5022567;28;20510;-70
2023/05/21 08:42:49;;;;;;;20.50;13.63;;;;;;;18.61;54.63;95777.50;5018665;28;20231;-70
2023/05/21 08:45:25;;;;;;;14.30;12.90;;;;;;;18.61;54.73;95781.03;5020179;28;20510;-70
2023/05/21 08:47:58;;;;;;;15.53;12.03;;;;;;;18.76;53.74;95789.53;5017694;28;20544;-69
2023/05/21 08:50:26;;;;;;;15.07;12.70;;;;;;;18.57;54.10;95789.41;5025502;28;20442;-70
2023/05/21 08:52:54;;;;;;;17.87;13.23;;;;;;;18.58;55.45;95785.75;5027695;28;20864;-68
2023/05/21 08:55:20;;;;;;;13.97;12.40;;;;;;;18.53;55.46;95790.63;5016367;28;20461;-71
2023/05/21 08:57:46;;;;;;;14.63;12.90;;;;;;;18.57;55.66;95794.72;5016561;28;20437;-71
2023/05/21 09:00:12;;;;;;;15.93;13.70;;;;;;;18.23;56.38;95792.25;5024328;28;20824;-71
2023/05/21 09:02:43;;;;;;;14.00;12.60;;;;;;;18.28;56.72;95800.66;5024483;28;20305;-70
2023/05/21 09:05:09;;;;;;;13.50;12.17;;;;;;;18.18;55.84;95800.59;5026670;28;20458;-70
2023/05/21 09:07:59;;;;;;;15.07;12.93;;;;;;;18.16;55.57;95807.00;5022538;28;20464;-70
2023/05/21 09:10:32;;;;;;;14.07;12.67;;;;;;;18.13;54.21;95801.97;5017539;28;20202;-71
2023/05/21 09:12:58;;;;;;;13.77;12.37;;;;;;;18.52;53.72;95799.56;5023349;28;20440;-72
2023/05/21 09:15:24;;;;;;;28.50;14.23;;;;;;;18.58;53.92;95807.00;5021441;28;20459;-72
2023/05/21 09:17:49;;;;;;;12.37;11.27;;;;;;;18.56;54.00;95803.63;5015766;28;20582;-71
2023/05/21 09:20:15;;;;;;;18.43;12.23;;;;;;;18.56;54.87;95800.97;5028540;28;20167;-70
2023/05/21 09:22:41;;;;;;;13.27;11.97;;;;;;;18.66;55.53;95801.91;5027899;28;20328;-71
2023/05/21 09:25:08;;;;;;;16.33;14.10;;;;;;;18.52;55.24;95800.41;5026907;28;20211;-70
2023/05/21 09:27:34;;;;;;;18.07;14.20;;;;;;;18.80;55.39;95806.91;5027047;28;20232;-70
2023/05/21 09:30:00;;;;;;;15.70;14.20;;;;;;;18.52;55.92;95803.06;5026845;28;20553;-69
2023/05/21 09:32:26;;;;;;;15.40;12.03;;;;;;;18.51;54.89;95803.19;5027196;28;20815;-70
2023/05/21 09:34:51;;;;;;;13.80;12.50;;;;;;;18.77;54.34;95807.13;5025087;28;20460;-70
2023/05/21 09:37:17;;;;;;;11.97;10.80;;;;;;;18.79;52.88;95805.19;5024103;28;20298;-69
2023/05/21 09:39:43;;;;;;;16.23;12.60;;;;;;;18.84;53.23;95807.47;5024672;28;20171;-70
2023/05/21 09:42:08;;;;;;;15.17;13.70;;;;;;;18.97;54.23;95808.09;5027445;28;20183;-69
2023/05/21 09:44:34;;;;;;;18.20;13.20;;;;;;;18.98;54.21;95799.13;5024747;28;20203;-71
2023/05/21 09:47:00;;;;;;;14.30;12.90;;;;;;;18.98;54.04;95798.28;5025969;28;20290;-70
2023/05/21 09:49:26;;;;;;;14.47;12.90;;;;;;;18.96;54.57;95802.91;5025960;28;20692;-72
2023/05/21 09:51:56;;;;;;;13.80;12.50;;;;;;;19.11;54.79;95798.91;5024476;28;20497;-71
2023/05/21 09:54:23;;;;;;;15.27;13.33;;;;;;;19.13;54.76;95796.94;5023864;28;21141;-69
2023/05/21 09:56:51;;;;;;;14.50;12.80;;;;;;;19.42;54.14;95798.88;5024046;28;20421;-71
2023/05/21 09:59:16;;;;;;;15.67;14.00;;;;;;;19.53;53.70;95795.22;5023949;28;20414;-70
2023/05/21 10:01:42;;;;;;;14.53;13.07;;;;;;;19.68;53.38;95793.91;5023700;28;20425;-71
2023/05/21 10:04:08;;;;;;;14.70;13.20;;;;;;;19.64;54.11;95801.28;5023424;28;20207;-72
2023/05/21 10:06:40;;;;;;;14.97;13.47;;;;;;;19.58;55.05;95796.53;5023771;28;20167;-71
2023/05/21 10:09:09;;;;;;;14.67;13.10;;;;;;;19.82;54.69;95806.81;5023669;28;20180;-71
2023/05/21 10:11:36;;;;;;;14.63;13.20;;;;;;;19.81;54.95;95807.75;5023491;28;20493;-71
2023/05/21 10:14:07;;;;;;;16.17;13.80;;;;;;;19.99;54.74;95807.94;5023995;28;20414;-71
2023/05/21 10:16:35;;;;;;;15.33;13.57;;;;;;;19.94;54.60;95807.50;5025118;28;20422;-71
2023/05/21 10:19:00;;;;;;;14.87;13.43;;;;;;;19.79;55.05;95811.56;5027441;28;20549;-71
2023/05/21 10:21:26;;;;;;;15.57;13.93;;;;;;;19.88;54.60;95800.91;5027915;28;20568;-70
2023/05/21 10:23:52;;;;;;;15.50;14.00;;;;;;;19.76;54.86;95807.34;5027050;28;20207;-71
2023/05/21 10:26:23;;;;;;;19.00;14.03;;;;;;;19.80;55.33;95805.25;5027782;28;20369;-68
2023/05/21 10:28:49;;;;;;;34.77;14.93;;;;;;;19.82;55.34;95798.81;5028184;28;20501;-70
2023/05/21 10:31:15;;;;;;;17.70;14.67;;;;;;;19.53;55.67;95809.38;5027761;28;20790;-71
2023/05/21 10:33:42;;;;;;;15.43;13.80;;;;;;;19.49;56.01;95802.66;5027501;28;20410;-71
2023/05/21 10:36:07;;;;;;;16.60;14.93;;;;;;;19.74;55.13;95795.16;5027357;28;20218;-71
2023/05/21 10:38:34;;;;;;;17.57;15.17;;;;;;;19.72;55.63;95799.78;5027667;28;20410;-70
2023/05/21 10:41:03;;;;;;;29.97;16.23;;;;;;;19.90;55.27;95795.44;5027428;28;20182;-70
2023/05/21 10:43:50;;;;;;;17.03;14.57;;;;;;;20.03;54.98;95803.16;5028251;28;20548;-72
2023/05/21 10:46:30;;;;;;;16.13;14.27;;;;;;;19.58;54.30;95799.19;5028087;28;20556;-68
2023/05/21 10:49:22;;;;;;;15.57;13.93;;;;;;;19.82;54.59;95797.97;5030495;28;20413;-71
2023/05/21 10:52:25;;;;;;;14.37;12.87;;;;;;;20.12;53.43;95799.66;5030535;28;20447;-71
2023/05/21 10:55:26;;;;;;;14.63;13.23;;;;;;;20.19;52.98;95792.78;5030683;28;20426;-69
2023/05/21 10:58:01;;;;;;;16.43;12.17;;;;;;;20.47;52.14;95799.03;5007330;28;20421;-71
2023/05/21 11:00:29;;;;;;;14.17;12.73;;;;;;;20.24;52.27;95795.84;5030346;28;20417;-70
2023/05/21 11:02:56;;;;;;;14.90;13.30;;;;;;;20.46;51.85;95796.53;5029567;28;20458;-71
2023/05/21 11:05:58;;;;;;;13.97;12.67;;;;;;;20.45;51.89;95793.00;5029913;28;20436;-71
2023/05/21 11:08:34;;;;;;;13.30;11.90;;;;;;;20.66;51.40;95779.53;4988126;28;20431;-71
2023/05/21 11:11:01;;;;;;;19.00;13.77;;;;;;;20.79;51.20;95781.03;5024310;28;20438;-71
2023/05/21 11:13:30;;;;;;;16.77;13.17;;;;;;;20.83;50.59;95777.09;5030037;28;20777;-71
2023/05/21 11:15:58;;;;;;;13.83;12.07;;;;;;;20.78;50.60;95782.03;5029931;28;20472;-70